createdAt,value
2023-05-18T00:00:32.911Z,9.90
2023-05-18T00:05:25.124Z,9.90
2023-05-18T00:10:17.257Z,9.90
2023-05-18T00:15:10.556Z,9.80
2023-05-18T00:20:05.370Z,9.80
2023-05-18T00:24:58.670Z,9.70
2023-05-18T00:29:50.814Z,9.60
2023-05-18T00:34:43.002Z,9.50
2023-05-18T00:39:35.217Z,9.40
2023-05-18T00:44:28.069Z,9.30
2023-05-18T00:49:20.626Z,9.10
2023-05-18T00:54:12.860Z,9.00
2023-05-18T00:59:05.249Z,9.00
2023-05-18T01:04:03.168Z,8.90
2023-05-18T01:10:04.594Z,8.80
2023-05-18T01:15:09.021Z,8.80
2023-05-18T01:20:10.413Z,8.70
2023-05-18T01:25:41.059Z,8.40
2023-05-18T01:30:36.170Z,8.30
2023-05-18T01:35:28.994Z,8.20
2023-05-18T01:40:26.376Z,8.10
2023-05-18T01:45:25.996Z,8.10
2023-05-18T01:50:29.085Z,8.10
2023-05-18T01:55:23.517Z,8.10
2023-05-18T02:00:20.368Z,8.10
2023-05-18T02:05:12.835Z,8.00
2023-05-18T02:10:07.681Z,8.00
2023-05-18T02:15:01.167Z,7.90
2023-05-18T02:19:53.431Z,7.90
2023-05-18T02:24:47.011Z,7.90
2023-05-18T02:29:40.166Z,7.90
2023-05-18T02:34:33.098Z,7.90
2023-05-18T02:39:25.357Z,7.80
2023-05-18T02:44:17.525Z,7.80
2023-05-18T02:49:09.607Z,7.80
2023-05-18T02:54:02.057Z,7.60
2023-05-18T02:58:58.441Z,7.50
2023-05-18T03:04:01.149Z,7.50
2023-05-18T03:08:56.630Z,7.50
2023-05-18T03:13:56.725Z,7.40
2023-05-18T03:18:48.924Z,7.20
2023-05-18T03:23:41.335Z,7.20
2023-05-18T03:28:33.805Z,7.20
2023-05-18T03:33:27.936Z,7.30
2023-05-18T03:38:20.156Z,7.40
2023-05-18T03:43:19.748Z,7.60
2023-05-18T03:48:13.295Z,7.40
2023-05-18T03:53:05.628Z,7.50
2023-05-18T03:57:59.251Z,7.50
2023-05-18T04:02:52.145Z,7.60
2023-05-18T04:07:48.420Z,7.70
2023-05-18T04:12:41.039Z,7.90
2023-05-18T04:17:34.128Z,8.30
2023-05-18T04:22:29.896Z,9.90
2023-05-18T04:27:22.744Z,12.80
2023-05-18T04:32:15.310Z,14.70
2023-05-18T04:37:07.974Z,15.90
2023-05-18T04:42:01.130Z,17.80
2023-05-18T04:46:54.992Z,19.30
2023-05-18T04:51:47.948Z,21.20
2023-05-18T04:56:40.112Z,22.90
2023-05-18T05:01:32.835Z,20.80
2023-05-18T05:06:25.264Z,21.00
2023-05-18T05:11:17.454Z,23.60
2023-05-18T05:16:09.687Z,24.70
2023-05-18T05:21:01.910Z,26.50
2023-05-18T05:25:53.965Z,28.50
2023-05-18T05:30:46.337Z,29.90
2023-05-18T05:35:39.077Z,31.30
2023-05-18T05:40:31.289Z,32.30
2023-05-18T05:45:25.341Z,33.50
2023-05-18T05:50:22.060Z,34.10
2023-05-18T05:55:16.376Z,33.80
2023-05-18T06:00:13.039Z,35.30
2023-05-18T06:05:18.326Z,35.40
2023-05-18T06:10:11.148Z,36.00
2023-05-18T06:15:03.330Z,35.70
2023-05-18T06:19:55.752Z,35.10
2023-05-18T06:24:48.298Z,34.10
2023-05-18T06:30:11.162Z,34.70
2023-05-18T06:35:21.929Z,36.00
2023-05-18T06:40:14.249Z,37.00
2023-05-18T06:45:08.249Z,34.40
2023-05-18T06:50:13.258Z,30.00
2023-05-18T06:55:05.945Z,29.20
2023-05-18T06:59:59.435Z,27.30
2023-05-18T07:04:53.488Z,25.90
2023-05-18T07:09:46.205Z,30.40
2023-05-18T07:14:38.609Z,31.90
2023-05-18T07:19:30.806Z,31.50
2023-05-18T07:24:23.104Z,30.60
2023-05-18T07:29:16.560Z,31.60
2023-05-18T07:34:08.713Z,28.00
2023-05-18T07:39:01.286Z,28.30
2023-05-18T07:43:53.665Z,27.30
2023-05-18T07:48:46.394Z,26.50
2023-05-18T07:53:40.278Z,27.50
2023-05-18T07:58:32.419Z,30.10
2023-05-18T08:03:24.542Z,30.60
2023-05-18T08:08:16.794Z,29.20
2023-05-18T08:13:09.008Z,30.30
2023-05-18T08:18:01.304Z,30.00
2023-05-18T08:22:53.538Z,30.00
2023-05-18T08:27:45.801Z,29.80
2023-05-18T08:32:38.069Z,30.90
2023-05-18T08:37:31.213Z,29.00
2023-05-18T08:42:41.684Z,29.80
2023-05-18T08:47:38.715Z,30.30
2023-05-18T08:52:36.819Z,28.10
2023-05-18T08:57:31.448Z,26.50
2023-05-18T09:02:24.340Z,25.10
2023-05-18T09:07:17.349Z,24.30
2023-05-18T09:12:11.594Z,24.00
2023-05-18T09:17:03.793Z,23.40
2023-05-18T09:21:55.967Z,24.40
2023-05-18T09:26:48.589Z,25.70
2023-05-18T09:31:41.152Z,28.40
2023-05-18T09:36:34.654Z,26.90
2023-05-18T09:41:28.221Z,26.30
2023-05-18T09:46:21.048Z,25.70
2023-05-18T09:51:16.971Z,24.80
2023-05-18T09:56:12.565Z,25.50
2023-05-18T10:01:05.098Z,25.20
2023-05-18T10:06:03.735Z,24.50
2023-05-18T10:10:56.283Z,23.20
2023-05-18T10:15:54.899Z,23.60
2023-05-18T10:20:48.837Z,23.60
2023-05-18T10:25:44.992Z,24.00
2023-05-18T10:30:40.221Z,24.00
2023-05-18T10:35:33.391Z,24.80
2023-05-18T10:40:28.341Z,24.80
2023-05-18T10:45:21.476Z,24.90
2023-05-18T10:50:16.760Z,24.20
2023-05-18T10:55:09.319Z,25.40
2023-05-18T11:00:01.569Z,25.70
2023-05-18T11:04:54.579Z,24.10
2023-05-18T11:09:49.303Z,24.60
2023-05-18T11:14:51.670Z,25.70
2023-05-18T11:20:13.513Z,25.50
2023-05-18T11:25:09.786Z,25.30
2023-05-18T11:30:14.709Z,24.30
2023-05-18T11:35:24.152Z,23.90
2023-05-18T11:40:44.822Z,23.70
2023-05-18T11:45:57.336Z,23.30
2023-05-18T11:50:55.441Z,22.80
2023-05-18T11:55:47.594Z,23.90
2023-05-18T12:00:40.721Z,22.60
2023-05-18T12:05:35.770Z,22.30
2023-05-18T12:10:29.699Z,21.50
2023-05-18T12:15:24.520Z,21.30
2023-05-18T12:20:21.951Z,22.60
2023-05-18T12:25:14.073Z,22.10
2023-05-18T12:30:14.078Z,21.40
2023-05-18T12:35:08.854Z,21.10
2023-05-18T12:40:00.984Z,21.40
2023-05-18T12:44:53.021Z,21.30
2023-05-18T12:49:50.338Z,21.00
2023-05-18T12:55:00.905Z,21.00
2023-05-18T12:59:54.349Z,20.70
2023-05-18T13:04:46.638Z,20.50
2023-05-18T13:09:45.900Z,20.20
2023-05-18T13:14:38.790Z,20.20
2023-05-18T13:19:31.740Z,20.10
2023-05-18T13:24:24.142Z,20.40
2023-05-18T13:29:16.302Z,19.70
2023-05-18T13:34:08.544Z,19.40
2023-05-18T13:39:01.575Z,18.80
2023-05-18T13:43:53.766Z,18.70
2023-05-18T13:48:45.948Z,19.40
2023-05-18T13:53:39.468Z,19.80
2023-05-18T13:58:33.010Z,20.00
2023-05-18T14:03:25.092Z,20.40
2023-05-18T14:08:17.510Z,20.30
2023-05-18T14:13:09.701Z,19.50
2023-05-18T14:18:02.234Z,19.10
2023-05-18T14:22:54.451Z,18.90
2023-05-18T14:27:46.993Z,18.70
2023-05-18T14:32:39.245Z,18.60
2023-05-18T14:37:33.042Z,18.40
2023-05-18T14:42:25.194Z,18.20
2023-05-18T14:47:18.039Z,18.10
2023-05-18T14:52:10.093Z,18.00
2023-05-18T14:57:02.150Z,18.00
2023-05-18T15:01:54.428Z,18.40
2023-05-18T15:06:46.562Z,19.00
2023-05-18T15:11:38.629Z,19.60
2023-05-18T15:16:30.811Z,19.70
2023-05-18T15:21:22.978Z,19.50
2023-05-18T15:26:15.204Z,19.20
2023-05-18T15:31:07.399Z,18.50
2023-05-18T15:35:59.499Z,18.50
2023-05-18T15:40:54.145Z,18.40
2023-05-18T15:45:46.327Z,18.30
2023-05-18T15:50:38.621Z,18.00
2023-05-18T15:55:30.744Z,17.80
2023-05-18T16:00:23.830Z,17.50
2023-05-18T16:05:17.270Z,17.30
2023-05-18T16:10:09.456Z,17.30
2023-05-18T16:15:01.516Z,17.40
2023-05-18T16:19:53.989Z,17.50
2023-05-18T16:24:46.028Z,17.70
2023-05-18T16:29:38.066Z,17.70
2023-05-18T16:34:30.143Z,18.10
2023-05-18T16:39:22.269Z,18.40
2023-05-18T16:44:14.258Z,18.80
2023-05-18T16:49:06.656Z,19.00
2023-05-18T16:53:58.855Z,18.60
2023-05-18T16:58:52.431Z,18.30
2023-05-18T17:03:45.139Z,17.80
2023-05-18T17:08:37.438Z,17.50
2023-05-18T17:13:29.593Z,17.30
2023-05-18T17:18:21.936Z,17.10
2023-05-18T17:23:17.479Z,16.90
2023-05-18T17:28:09.760Z,16.90
2023-05-18T17:33:01.840Z,16.90
2023-05-18T17:37:54.974Z,16.80
2023-05-18T17:42:47.874Z,16.70
2023-05-18T17:47:41.896Z,16.70
2023-05-18T17:52:34.272Z,16.80
2023-05-18T17:57:26.875Z,16.70
2023-05-18T18:02:18.929Z,16.60
2023-05-18T18:07:10.928Z,16.50
2023-05-18T18:12:03.052Z,16.50
2023-05-18T18:16:56.192Z,16.50
2023-05-18T18:21:49.441Z,16.40
2023-05-18T18:26:41.921Z,16.30
2023-05-18T18:31:34.322Z,16.10
2023-05-18T18:36:26.712Z,16.00
2023-05-18T18:41:19.053Z,15.90
2023-05-18T18:46:11.238Z,15.80
2023-05-18T18:51:03.617Z,15.60
2023-05-18T18:55:57.213Z,15.50
2023-05-18T19:00:50.122Z,15.50
2023-05-18T19:05:42.514Z,15.40
2023-05-18T19:10:35.604Z,15.30
2023-05-18T19:15:28.213Z,15.30
2023-05-18T19:20:22.179Z,15.20
2023-05-18T19:25:14.452Z,15.20
2023-05-18T19:30:07.484Z,15.10
2023-05-18T19:34:59.699Z,15.10
2023-05-18T19:39:51.901Z,15.00
2023-05-18T19:44:44.102Z,14.90
2023-05-18T19:49:36.224Z,14.90
2023-05-18T19:54:28.304Z,14.80
2023-05-18T19:59:20.591Z,14.70
2023-05-18T20:04:13.123Z,14.60
2023-05-18T20:09:05.422Z,14.60
2023-05-18T20:13:57.450Z,14.50
2023-05-18T20:18:49.614Z,14.40
2023-05-18T20:23:42.153Z,14.20
2023-05-18T20:28:35.542Z,14.20
2023-05-18T20:33:30.288Z,14.10
2023-05-18T20:38:25.996Z,14.00
2023-05-18T20:43:18.334Z,13.90
2023-05-18T20:48:12.217Z,13.80
2023-05-18T20:53:04.362Z,13.70
2023-05-18T20:57:56.621Z,13.70
2023-05-18T21:02:48.880Z,13.60
2023-05-18T21:07:41.063Z,13.70
2023-05-18T21:12:33.164Z,13.70
2023-05-18T21:17:25.301Z,13.70
2023-05-18T21:22:17.400Z,13.70
2023-05-18T21:27:09.447Z,13.70
2023-05-18T21:32:01.538Z,13.50
2023-05-18T21:36:53.682Z,13.50
2023-05-18T21:41:46.069Z,13.60
2023-05-18T21:46:38.243Z,13.40
2023-05-18T21:51:33.359Z,13.40
2023-05-18T21:56:26.728Z,13.40
2023-05-18T22:01:21.382Z,13.20
2023-05-18T22:06:14.002Z,13.20
2023-05-18T22:11:06.635Z,13.10
2023-05-18T22:15:58.761Z,13.00
2023-05-18T22:20:50.991Z,13.00
2023-05-18T22:25:43.310Z,13.00
2023-05-18T22:30:35.703Z,13.00
2023-05-18T22:35:28.064Z,13.00
2023-05-18T22:40:20.467Z,12.90
2023-05-18T22:45:12.608Z,12.90
2023-05-18T22:50:08.343Z,12.90
2023-05-18T22:55:01.269Z,12.90
2023-05-18T22:59:53.332Z,12.90
2023-05-18T23:04:45.475Z,13.00
2023-05-18T23:09:40.912Z,12.80
2023-05-18T23:14:33.907Z,12.80
2023-05-18T23:19:29.567Z,13.00
2023-05-18T23:24:22.425Z,12.80
2023-05-18T23:29:14.632Z,12.70
2023-05-18T23:34:07.040Z,12.60
2023-05-18T23:39:00.084Z,12.60
2023-05-18T23:43:53.203Z,12.70
2023-05-18T23:48:45.725Z,12.70
2023-05-18T23:53:38.279Z,12.50
2023-05-18T23:58:32.220Z,12.50
